Terminal Aerodrome Forecast
Issued by NWS Wichita, KS

Home | Current Version | Previous Version | Graphics & Text | Print | Product List | Glossary On
Versions: 1 2 3 4 5 6 7 8 9 10 11 12 13
000
FTUS43 KICT 141131
TAFICT
TAF
KICT 141131Z 1412/1512 34008KT P6SM BKN120 OVC250
     FM141900 32009KT P6SM OVC100
     FM150600 32008KT P6SM SCT100=

USA.gov is the U.S. government's official web portal to all federal, state and local government web resources and services.